Flight Track Log - Related Links

Times and Time Zones

All times are in EDT time to prevent confusion due to time zone crossing. See the PDT4305 flight status page for this flight to view local times or setup timezone preferences in your user account.

Time Position Orientation Groundspeed Altitude Reporting Facility
EDT Latitude Longitude Course Direction KTS MPH feet Rate Location/Type
Sun 09:35:44 PM 39.9000 -75.2500 311° West 179 206 600  Level Philadelphia TRACON
Sun 09:36:38 PM 39.9167 -75.2833 303° West 123 142 1,800 1,333 Climbing Philadelphia TRACON
Sun 09:37:50 PM 39.9333 -75.3333 294° West 117 135 3,400 1,289 Climbing Philadelphia TRACON
Sun 09:38:00 PM 40.0589 -75.3708 323° Northwest  Level Estimated
Sun 09:38:39 PM 39.9333 -75.3667 270° West 125 144 4,400  Level Philadelphia TRACON
Sun 09:39:00 PM 40.1211 -75.4142 339° North  Level Estimated
Sun 09:39:39 PM 39.9500 -75.4000 303° West 129 148 5,900  Level Philadelphia TRACON
Sun 09:40:00 PM 40.1465 -75.4965 323° Northwest  Level FlightAware Approximate
Sun 09:40:33 PM 39.9667 -75.4333 303° West 124 143 7,000  Level Philadelphia TRACON
Sun 09:41:00 PM 40.1992 -75.5488 311° West  Level FlightAware Approximate
Sun 09:41:56 PM 40.0011 -75.4725 319° Northwest 172 198 8,100  Level New York Center
Sun 09:42:55 PM 40.0503 -75.4919 343° North 194 223 9,100 966 Climbing New York Center
Sun 09:43:54 PM 40.0933 -75.5111 341° North 181 208 10,000 893 Climbing New York Center
Sun 09:44:56 PM 40.1467 -75.5311 344° North 186 214 10,900 800 Climbing New York Center
Sun 09:45:54 PM 40.1919 -75.5450 347° North 186 214 11,600 555 Climbing New York Center
Sun 09:46:55 PM 40.2428 -75.5758 335° Northwest 186 214 12,000 198 Climbing New York Center
Sun 09:47:55 PM 40.2822 -75.6356 311° West 195 224 12,000 198 Level New York Center
Sun 09:48:56 PM 40.3281 -75.6825 322° Northwest 208 239 12,400 504 Climbing New York Center
Sun 09:49:54 PM 40.3742 -75.7239 326° Northwest 208 239 13,000 303 Climbing New York Center
Sun 09:50:55 PM 40.4119 -75.7675 319° Northwest 203 234 13,000  Level New York Center
Sun 09:51:56 PM 40.4556 -75.8197 318° Northwest 208 239 13,000  Level New York Center
Sun 09:52:54 PM 40.5094 -75.8756 322° Northwest 214 246 13,000  Level New York Center
Sun 09:53:54 PM 40.5594 -75.9286 321° Northwest 220 253 13,000  Level New York Center
Sun 09:54:54 PM 40.6050 -75.9811 319° Northwest 227 261 13,000  Level New York Center
Sun 09:55:54 PM 40.6569 -76.0289 325° Northwest 227 261 13,000  Level New York Center
Sun 09:56:54 PM 40.6986 -76.0758 320° Northwest 227 261 13,000  Level New York Center
Sun 09:57:56 PM 40.7531 -76.1183 329° Northwest 222 255 13,000  Level New York Center
Sun 09:58:55 PM 40.8183 -76.1483 341° North 220 253 13,000  Level New York Center
Sun 09:59:55 PM 40.8731 -76.1856 333° Northwest 220 253 13,000  Level New York Center
Sun 10:00:55 PM 40.9297 -76.2203 335° Northwest 225 259 13,000 50 Level New York Center
Sun 10:01:55 PM 40.9831 -76.2408 344° North 230 265 13,100  Climbing New York Center
Sun 10:02:54 PM 41.0481 -76.2736 339° North 225 259 13,000 -50 Descending New York Center
Sun 10:03:56 PM 41.1069 -76.3061 337° Northwest 225 259 13,000  Level New York Center
Sun 10:04:56 PM 41.1658 -76.3383 338° Northwest 231 266 13,000 50 Level New York Center
Sun 10:05:55 PM 41.2186 -76.3675 337° Northwest 226 260 13,100 50 Climbing New York Center
Sun 10:06:56 PM 41.2797 -76.4003 338° Northwest 231 266 13,100 -50 Level New York Center
Sun 10:07:55 PM 41.3467 -76.4336 340° North 231 266 13,000  Descending New York Center
Sun 10:08:56 PM 41.4033 -76.4714 333° Northwest 231 266 13,100 50 Climbing New York Center
Sun 10:09:56 PM 41.4622 -76.5014 339° North 231 266 13,100 -51 Level New York Center
Sun 10:10:54 PM 41.5150 -76.5308 337° Northwest 231 266 13,000 -50 Descending New York Center
Sun 10:11:56 PM 41.5736 -76.5692 334° Northwest 231 266 13,000 -595 Level New York Center
Sun 10:12:55 PM 41.6444 -76.6086 337° Northwest 243 280 11,800 -1,050 Descending New York Center
Sun 10:13:56 PM 41.7114 -76.6478 336° Northwest 258 297 10,900 -900 Descending New York Center
Sun 10:14:55 PM 41.7836 -76.6569 355° North 266 306 10,000 -950 Descending New York Center
Sun 10:15:56 PM 41.8586 -76.6608 358° North 272 313 9,000 -992 Descending New York Center
Sun 10:16:56 PM 41.9339 -76.6536 North 272 313 8,000 -1,210 Descending New York Center
Sun 10:17:55 PM 42.0069 -76.6517 North 272 313 6,600 -1,500 Descending New York Center
Sun 10:18:56 PM 42.0778 -76.6494 North 261 300 5,000 -1,300 Descending New York Center
Sun 10:19:55 PM 42.1425 -76.6469 North 246 283 4,000 -555 Descending New York Center
Sun 10:20:55 PM 42.2028 -76.6467 360° North 231 266 3,900 -350 Descending New York Center
Sun 10:21:55 PM 42.2506 -76.6931 324° Northwest 206 237 3,300 -303 Descending New York Center
Sun 10:22:54 PM 42.2475 -76.7544 266° West 175 201 3,300 -400 Level New York Center
Sun 10:23:55 PM 42.2136 -76.8044 228° Southwest 142 163 2,500 -595 Descending New York Center
Sun 10:24:55 PM 42.1967 -76.8533 245° Southwest 142 163 2,100 3,223 Descending New York Center
Sun 10:25:56 PM 42.1797 -76.8992 243° Southwest 142 163 9,000 6,787 Climbing New York Center

Login

Don't have an account? Register now (free) for customized features, flight alerts, and more!